sensor_id;sensor_type;location;lat;lon;timestamp;P1;durP1;ratioP1;P2;durP2;ratioP2
20832;SDS011;56075;51.264;7.150;2023-07-13T00:00:16;5.10;;;1.20;;
20832;SDS011;56075;51.264;7.150;2023-07-13T00:02:48;5.53;;;1.40;;
20832;SDS011;56075;51.264;7.150;2023-07-13T00:05:22;2.28;;;1.02;;
20832;SDS011;56075;51.264;7.150;2023-07-13T00:07:54;6.60;;;1.20;;
20832;SDS011;56075;51.264;7.150;2023-07-13T00:10:25;5.30;;;1.08;;
20832;SDS011;56075;51.264;7.150;2023-07-13T00:12:57;4.57;;;1.08;;
20832;SDS011;56075;51.264;7.150;2023-07-13T00:15:28;4.80;;;1.10;;
20832;SDS011;56075;51.264;7.150;2023-07-13T00:18:02;7.95;;;1.10;;
20832;SDS011;56075;51.264;7.150;2023-07-13T00:20:34;5.13;;;0.90;;
20832;SDS011;56075;51.264;7.150;2023-07-13T00:23:05;3.70;;;0.95;;
20832;SDS011;56075;51.264;7.150;2023-07-13T00:25:36;5.90;;;1.00;;
20832;SDS011;56075;51.264;7.150;2023-07-13T00:28:07;3.58;;;1.00;;
20832;SDS011;56075;51.264;7.150;2023-07-13T00:30:38;5.30;;;1.20;;
20832;SDS011;56075;51.264;7.150;2023-07-13T00:33:10;9.77;;;1.45;;
20832;SDS011;56075;51.264;7.150;2023-07-13T00:35:41;4.75;;;1.30;;
20832;SDS011;56075;51.264;7.150;2023-07-13T00:38:14;2.08;;;0.82;;
20832;SDS011;56075;51.264;7.150;2023-07-13T00:40:45;5.40;;;1.00;;
20832;SDS011;56075;51.264;7.150;2023-07-13T00:43:17;5.63;;;1.38;;
20832;SDS011;56075;51.264;7.150;2023-07-13T00:48:23;5.32;;;0.93;;
20832;SDS011;56075;51.264;7.150;2023-07-13T00:50:58;8.25;;;1.20;;
20832;SDS011;56075;51.264;7.150;2023-07-13T00:53:32;8.50;;;1.27;;
20832;SDS011;56075;51.264;7.150;2023-07-13T00:56:04;5.75;;;1.25;;
20832;SDS011;56075;51.264;7.150;2023-07-13T00:58:37;7.72;;;1.35;;
20832;SDS011;56075;51.264;7.150;2023-07-13T01:01:08;11.82;;;1.52;;
20832;SDS011;56075;51.264;7.150;2023-07-13T01:03:40;5.78;;;1.20;;
20832;SDS011;56075;51.264;7.150;2023-07-13T01:06:11;8.68;;;1.40;;
20832;SDS011;56075;51.264;7.150;2023-07-13T01:08:43;7.28;;;1.30;;
20832;SDS011;56075;51.264;7.150;2023-07-13T01:11:18;4.78;;;1.00;;
20832;SDS011;56075;51.264;7.150;2023-07-13T01:13:51;6.18;;;1.13;;
20832;SDS011;56075;51.264;7.150;2023-07-13T01:16:26;4.85;;;1.40;;
20832;SDS011;56075;51.264;7.150;2023-07-13T01:19:00;3.60;;;1.05;;
20832;SDS011;56075;51.264;7.150;2023-07-13T01:21:33;4.40;;;1.10;;
20832;SDS011;56075;51.264;7.150;2023-07-13T01:24:04;3.28;;;0.98;;
20832;SDS011;56075;51.264;7.150;2023-07-13T01:26:35;3.78;;;1.08;;
20832;SDS011;56075;51.264;7.150;2023-07-13T01:29:06;8.07;;;1.30;;
20832;SDS011;56075;51.264;7.150;2023-07-13T01:31:38;6.95;;;1.10;;
20832;SDS011;56075;51.264;7.150;2023-07-13T01:34:09;5.28;;;1.20;;
20832;SDS011;56075;51.264;7.150;2023-07-13T01:36:41;5.20;;;1.13;;
20832;SDS011;56075;51.264;7.150;2023-07-13T01:39:13;6.13;;;1.05;;
20832;SDS011;56075;51.264;7.150;2023-07-13T01:41:45;10.32;;;1.27;;
20832;SDS011;56075;51.264;7.150;2023-07-13T01:44:16;5.10;;;0.77;;
20832;SDS011;56075;51.264;7.150;2023-07-13T01:46:47;4.15;;;0.93;;
20832;SDS011;56075;51.264;7.150;2023-07-13T01:49:18;4.00;;;0.90;;
20832;SDS011;56075;51.264;7.150;2023-07-13T01:51:49;6.07;;;0.82;;
20832;SDS011;56075;51.264;7.150;2023-07-13T01:54:20;4.45;;;1.15;;
20832;SDS011;56075;51.264;7.150;2023-07-13T01:56:51;5.18;;;1.10;;
20832;SDS011;56075;51.264;7.150;2023-07-13T01:59:23;6.65;;;0.88;;
20832;SDS011;56075;51.264;7.150;2023-07-13T02:01:54;4.97;;;1.10;;
20832;SDS011;56075;51.264;7.150;2023-07-13T02:04:25;8.98;;;1.20;;
20832;SDS011;56075;51.264;7.150;2023-07-13T02:06:56;5.30;;;0.95;;
20832;SDS011;56075;51.264;7.150;2023-07-13T02:09:27;5.95;;;1.15;;
20832;SDS011;56075;51.264;7.150;2023-07-13T02:11:58;5.10;;;1.10;;
20832;SDS011;56075;51.264;7.150;2023-07-13T02:14:35;5.35;;;1.20;;
20832;SDS011;56075;51.264;7.150;2023-07-13T02:17:06;3.92;;;1.10;;
20832;SDS011;56075;51.264;7.150;2023-07-13T02:19:37;4.35;;;1.08;;
20832;SDS011;56075;51.264;7.150;2023-07-13T02:22:08;4.07;;;1.10;;
20832;SDS011;56075;51.264;7.150;2023-07-13T02:24:39;5.22;;;1.20;;
20832;SDS011;56075;51.264;7.150;2023-07-13T02:27:10;2.25;;;0.90;;
20832;SDS011;56075;51.264;7.150;2023-07-13T02:29:42;4.78;;;1.10;;
20832;SDS011;56075;51.264;7.150;2023-07-13T02:32:13;4.47;;;1.08;;
20832;SDS011;56075;51.264;7.150;2023-07-13T02:34:44;5.40;;;1.17;;
20832;SDS011;56075;51.264;7.150;2023-07-13T02:37:15;4.95;;;1.10;;
20832;SDS011;56075;51.264;7.150;2023-07-13T02:39:47;3.85;;;1.10;;
20832;SDS011;56075;51.264;7.150;2023-07-13T02:42:18;6.15;;;1.15;;
20832;SDS011;56075;51.264;7.150;2023-07-13T02:44:49;5.35;;;1.30;;
20832;SDS011;56075;51.264;7.150;2023-07-13T02:47:22;6.15;;;1.02;;
20832;SDS011;56075;51.264;7.150;2023-07-13T02:49:53;3.42;;;1.10;;
20832;SDS011;56075;51.264;7.150;2023-07-13T02:52:25;4.72;;;1.08;;
20832;SDS011;56075;51.264;7.150;2023-07-13T02:54:56;5.88;;;1.20;;
20832;SDS011;56075;51.264;7.150;2023-07-13T02:57:27;7.07;;;1.08;;
20832;SDS011;56075;51.264;7.150;2023-07-13T02:59:59;5.30;;;1.13;;
20832;SDS011;56075;51.264;7.150;2023-07-13T03:02:31;4.35;;;1.20;;
20832;SDS011;56075;51.264;7.150;2023-07-13T03:05:02;5.75;;;1.25;;
20832;SDS011;56075;51.264;7.150;2023-07-13T03:07:36;5.90;;;1.30;;
20832;SDS011;56075;51.264;7.150;2023-07-13T03:10:08;5.90;;;1.00;;
20832;SDS011;56075;51.264;7.150;2023-07-13T03:12:46;3.40;;;1.20;;
20832;SDS011;56075;51.264;7.150;2023-07-13T03:15:29;8.00;;;1.27;;
20832;SDS011;56075;51.264;7.150;2023-07-13T03:18:02;7.60;;;1.15;;
20832;SDS011;56075;51.264;7.150;2023-07-13T03:20:34;3.47;;;1.00;;
20832;SDS011;56075;51.264;7.150;2023-07-13T03:23:05;6.00;;;1.30;;
20832;SDS011;56075;51.264;7.150;2023-07-13T03:25:37;4.35;;;1.30;;
20832;SDS011;56075;51.264;7.150;2023-07-13T03:28:08;4.57;;;1.13;;
20832;SDS011;56075;51.264;7.150;2023-07-13T03:30:39;6.13;;;1.30;;
20832;SDS011;56075;51.264;7.150;2023-07-13T03:33:11;5.00;;;1.00;;
20832;SDS011;56075;51.264;7.150;2023-07-13T03:35:42;7.70;;;1.20;;
20832;SDS011;56075;51.264;7.150;2023-07-13T03:38:14;5.65;;;1.05;;
20832;SDS011;56075;51.264;7.150;2023-07-13T03:40:45;3.53;;;1.02;;
20832;SDS011;56075;51.264;7.150;2023-07-13T03:43:17;8.32;;;1.13;;
20832;SDS011;56075;51.264;7.150;2023-07-13T03:45:48;5.30;;;1.13;;
20832;SDS011;56075;51.264;7.150;2023-07-13T03:48:19;8.57;;;1.30;;
20832;SDS011;56075;51.264;7.150;2023-07-13T03:50:50;5.20;;;1.25;;
20832;SDS011;56075;51.264;7.150;2023-07-13T03:53:21;8.98;;;1.38;;
20832;SDS011;56075;51.264;7.150;2023-07-13T03:55:52;8.07;;;1.20;;
20832;SDS011;56075;51.264;7.150;2023-07-13T03:58:28;3.97;;;1.30;;
20832;SDS011;56075;51.264;7.150;2023-07-13T04:01:08;8.88;;;1.20;;
20832;SDS011;56075;51.264;7.150;2023-07-13T04:03:40;7.60;;;1.10;;
20832;SDS011;56075;51.264;7.150;2023-07-13T04:06:16;3.50;;;1.00;;
20832;SDS011;56075;51.264;7.150;2023-07-13T04:08:54;6.32;;;1.27;;
20832;SDS011;56075;51.264;7.150;2023-07-13T04:11:28;2.38;;;0.90;;
20832;SDS011;56075;51.264;7.150;2023-07-13T04:14:02;3.95;;;0.95;;
20832;SDS011;56075;51.264;7.150;2023-07-13T04:16:33;6.22;;;1.17;;
20832;SDS011;56075;51.264;7.150;2023-07-13T04:19:04;7.93;;;1.40;;
20832;SDS011;56075;51.264;7.150;2023-07-13T04:21:36;5.70;;;1.27;;
20832;SDS011;56075;51.264;7.150;2023-07-13T04:24:07;7.97;;;1.30;;
20832;SDS011;56075;51.264;7.150;2023-07-13T04:26:39;4.57;;;1.02;;
20832;SDS011;56075;51.264;7.150;2023-07-13T04:29:10;5.72;;;1.30;;
20832;SDS011;56075;51.264;7.150;2023-07-13T04:31:41;3.33;;;1.17;;
20832;SDS011;56075;51.264;7.150;2023-07-13T04:34:12;7.45;;;1.33;;
20832;SDS011;56075;51.264;7.150;2023-07-13T04:36:43;7.20;;;1.33;;
20832;SDS011;56075;51.264;7.150;2023-07-13T04:39:15;7.90;;;1.42;;
20832;SDS011;56075;51.264;7.150;2023-07-13T04:41:46;5.22;;;1.30;;
20832;SDS011;56075;51.264;7.150;2023-07-13T04:44:17;5.90;;;1.55;;
20832;SDS011;56075;51.264;7.150;2023-07-13T04:46:49;9.60;;;1.40;;
20832;SDS011;56075;51.264;7.150;2023-07-13T04:49:20;5.18;;;1.20;;
20832;SDS011;56075;51.264;7.150;2023-07-13T04:51:52;4.20;;;1.00;;
20832;SDS011;56075;51.264;7.150;2023-07-13T04:54:23;7.80;;;1.70;;
20832;SDS011;56075;51.264;7.150;2023-07-13T04:56:54;6.68;;;1.38;;
20832;SDS011;56075;51.264;7.150;2023-07-13T04:59:25;8.50;;;1.42;;
20832;SDS011;56075;51.264;7.150;2023-07-13T05:01:56;5.53;;;1.38;;
20832;SDS011;56075;51.264;7.150;2023-07-13T05:04:28;3.92;;;1.20;;
20832;SDS011;56075;51.264;7.150;2023-07-13T05:06:59;4.00;;;1.20;;
20832;SDS011;56075;51.264;7.150;2023-07-13T05:09:30;7.10;;;1.23;;
20832;SDS011;56075;51.264;7.150;2023-07-13T05:12:01;10.13;;;1.40;;
20832;SDS011;56075;51.264;7.150;2023-07-13T05:14:33;5.88;;;1.30;;
20832;SDS011;56075;51.264;7.150;2023-07-13T05:17:04;5.00;;;1.10;;
20832;SDS011;56075;51.264;7.150;2023-07-13T05:19:35;10.38;;;1.60;;
20832;SDS011;56075;51.264;7.150;2023-07-13T05:22:07;4.57;;;1.23;;
20832;SDS011;56075;51.264;7.150;2023-07-13T05:24:38;8.68;;;1.48;;
20832;SDS011;56075;51.264;7.150;2023-07-13T05:27:09;5.13;;;1.67;;
20832;SDS011;56075;51.264;7.150;2023-07-13T05:29:41;6.28;;;1.40;;
20832;SDS011;56075;51.264;7.150;2023-07-13T05:32:13;6.10;;;1.45;;
20832;SDS011;56075;51.264;7.150;2023-07-13T05:34:44;6.25;;;1.17;;
20832;SDS011;56075;51.264;7.150;2023-07-13T05:37:15;5.38;;;1.60;;
20832;SDS011;56075;51.264;7.150;2023-07-13T05:39:46;6.70;;;1.40;;
20832;SDS011;56075;51.264;7.150;2023-07-13T05:42:17;7.82;;;1.45;;
20832;SDS011;56075;51.264;7.150;2023-07-13T05:44:49;5.55;;;1.40;;
20832;SDS011;56075;51.264;7.150;2023-07-13T05:47:20;6.95;;;1.80;;
20832;SDS011;56075;51.264;7.150;2023-07-13T05:49:51;6.63;;;1.50;;
20832;SDS011;56075;51.264;7.150;2023-07-13T05:52:22;7.15;;;1.35;;
20832;SDS011;56075;51.264;7.150;2023-07-13T05:54:53;6.47;;;1.55;;
20832;SDS011;56075;51.264;7.150;2023-07-13T05:57:24;6.43;;;1.30;;
20832;SDS011;56075;51.264;7.150;2023-07-13T05:59:55;5.05;;;1.30;;
20832;SDS011;56075;51.264;7.150;2023-07-13T06:02:27;7.18;;;1.83;;
20832;SDS011;56075;51.264;7.150;2023-07-13T06:04:58;7.75;;;1.70;;
20832;SDS011;56075;51.264;7.150;2023-07-13T06:07:29;8.07;;;1.58;;
20832;SDS011;56075;51.264;7.150;2023-07-13T06:10:01;4.95;;;1.30;;
20832;SDS011;56075;51.264;7.150;2023-07-13T06:12:32;8.95;;;1.60;;
20832;SDS011;56075;51.264;7.150;2023-07-13T06:15:04;6.55;;;1.52;;
20832;SDS011;56075;51.264;7.150;2023-07-13T06:17:35;7.13;;;1.88;;
20832;SDS011;56075;51.264;7.150;2023-07-13T06:20:07;8.57;;;1.95;;
20832;SDS011;56075;51.264;7.150;2023-07-13T06:22:38;10.82;;;1.70;;
20832;SDS011;56075;51.264;7.150;2023-07-13T06:25:09;3.33;;;1.70;;
20832;SDS011;56075;51.264;7.150;2023-07-13T06:27:40;5.43;;;1.45;;
20832;SDS011;56075;51.264;7.150;2023-07-13T06:30:11;6.03;;;1.60;;
20832;SDS011;56075;51.264;7.150;2023-07-13T06:32:43;11.43;;;1.77;;
20832;SDS011;56075;51.264;7.150;2023-07-13T06:35:14;10.25;;;1.77;;
20832;SDS011;56075;51.264;7.150;2023-07-13T06:37:45;10.07;;;1.95;;
20832;SDS011;56075;51.264;7.150;2023-07-13T06:40:17;6.95;;;2.20;;
20832;SDS011;56075;51.264;7.150;2023-07-13T06:42:48;5.03;;;2.17;;
20832;SDS011;56075;51.264;7.150;2023-07-13T06:45:19;11.07;;;2.50;;
20832;SDS011;56075;51.264;7.150;2023-07-13T06:47:51;9.07;;;2.03;;
20832;SDS011;56075;51.264;7.150;2023-07-13T06:50:22;15.20;;;2.63;;
20832;SDS011;56075;51.264;7.150;2023-07-13T06:52:53;4.05;;;1.92;;
20832;SDS011;56075;51.264;7.150;2023-07-13T06:55:24;10.23;;;2.13;;
20832;SDS011;56075;51.264;7.150;2023-07-13T06:57:55;8.68;;;2.45;;
20832;SDS011;56075;51.264;7.150;2023-07-13T07:00:26;5.88;;;2.25;;
20832;SDS011;56075;51.264;7.150;2023-07-13T07:02:57;6.75;;;2.50;;
20832;SDS011;56075;51.264;7.150;2023-07-13T07:05:28;7.22;;;2.97;;
20832;SDS011;56075;51.264;7.150;2023-07-13T07:08:00;13.35;;;2.88;;
20832;SDS011;56075;51.264;7.150;2023-07-13T07:10:31;9.15;;;2.50;;
20832;SDS011;56075;51.264;7.150;2023-07-13T07:13:03;10.05;;;2.50;;
20832;SDS011;56075;51.264;7.150;2023-07-13T07:15:34;10.25;;;2.63;;
20832;SDS011;56075;51.264;7.150;2023-07-13T07:18:06;8.57;;;2.28;;
20832;SDS011;56075;51.264;7.150;2023-07-13T07:20:37;7.95;;;2.05;;
20832;SDS011;56075;51.264;7.150;2023-07-13T07:23:08;10.88;;;2.30;;
20832;SDS011;56075;51.264;7.150;2023-07-13T07:25:40;12.40;;;2.08;;
20832;SDS011;56075;51.264;7.150;2023-07-13T07:28:14;10.88;;;2.33;;
20832;SDS011;56075;51.264;7.150;2023-07-13T07:30:52;9.30;;;2.00;;
20832;SDS011;56075;51.264;7.150;2023-07-13T07:33:24;5.03;;;2.10;;
20832;SDS011;56075;51.264;7.150;2023-07-13T07:35:55;8.15;;;2.47;;
20832;SDS011;56075;51.264;7.150;2023-07-13T07:38:29;6.45;;;2.30;;
20832;SDS011;56075;51.264;7.150;2023-07-13T07:41:02;8.98;;;2.05;;
20832;SDS011;56075;51.264;7.150;2023-07-13T07:43:35;11.18;;;2.45;;
20832;SDS011;56075;51.264;7.150;2023-07-13T07:46:07;8.18;;;2.38;;
20832;SDS011;56075;51.264;7.150;2023-07-13T07:48:38;9.57;;;2.45;;
20832;SDS011;56075;51.264;7.150;2023-07-13T07:51:09;6.50;;;2.50;;
20832;SDS011;56075;51.264;7.150;2023-07-13T07:53:40;10.35;;;2.63;;
20832;SDS011;56075;51.264;7.150;2023-07-13T07:56:11;9.18;;;2.47;;
20832;SDS011;56075;51.264;7.150;2023-07-13T07:58:42;9.13;;;2.22;;
20832;SDS011;56075;51.264;7.150;2023-07-13T08:01:16;8.18;;;3.10;;
20832;SDS011;56075;51.264;7.150;2023-07-13T08:03:47;9.38;;;2.53;;
20832;SDS011;56075;51.264;7.150;2023-07-13T08:06:18;9.23;;;2.42;;
20832;SDS011;56075;51.264;7.150;2023-07-13T08:08:50;9.60;;;2.45;;
20832;SDS011;56075;51.264;7.150;2023-07-13T08:11:21;7.30;;;2.40;;
20832;SDS011;56075;51.264;7.150;2023-07-13T08:13:53;7.13;;;2.20;;
20832;SDS011;56075;51.264;7.150;2023-07-13T08:16:24;10.40;;;2.92;;
20832;SDS011;56075;51.264;7.150;2023-07-13T08:18:56;8.77;;;2.83;;
20832;SDS011;56075;51.264;7.150;2023-07-13T08:21:27;5.63;;;2.78;;
20832;SDS011;56075;51.264;7.150;2023-07-13T08:23:59;6.57;;;2.58;;
20832;SDS011;56075;51.264;7.150;2023-07-13T08:26:30;13.18;;;2.97;;
20832;SDS011;56075;51.264;7.150;2023-07-13T08:29:01;9.15;;;2.45;;
20832;SDS011;56075;51.264;7.150;2023-07-13T08:31:33;9.25;;;2.78;;
20832;SDS011;56075;51.264;7.150;2023-07-13T08:34:04;9.88;;;2.90;;
20832;SDS011;56075;51.264;7.150;2023-07-13T08:36:35;11.35;;;2.83;;
20832;SDS011;56075;51.264;7.150;2023-07-13T08:39:07;10.75;;;2.80;;
20832;SDS011;56075;51.264;7.150;2023-07-13T08:41:40;5.47;;;2.88;;
20832;SDS011;56075;51.264;7.150;2023-07-13T08:44:16;12.98;;;2.72;;
20832;SDS011;56075;51.264;7.150;2023-07-13T08:46:58;8.65;;;2.10;;
20832;SDS011;56075;51.264;7.150;2023-07-13T08:49:29;7.30;;;2.40;;
20832;SDS011;56075;51.264;7.150;2023-07-13T08:52:32;10.23;;;2.33;;
20832;SDS011;56075;51.264;7.150;2023-07-13T08:55:09;8.60;;;2.40;;
20832;SDS011;56075;51.264;7.150;2023-07-13T08:57:46;10.15;;;2.33;;
20832;SDS011;56075;51.264;7.150;2023-07-13T09:00:24;8.65;;;2.28;;
20832;SDS011;56075;51.264;7.150;2023-07-13T09:03:04;16.40;;;2.50;;
20832;SDS011;56075;51.264;7.150;2023-07-13T09:05:42;10.27;;;2.67;;
20832;SDS011;56075;51.264;7.150;2023-07-13T09:11:23;9.57;;;2.55;;
20832;SDS011;56075;51.264;7.150;2023-07-13T09:17:19;7.45;;;2.22;;
20832;SDS011;56075;51.264;7.150;2023-07-13T09:19:58;6.70;;;1.98;;
20832;SDS011;56075;51.264;7.150;2023-07-13T09:22:34;9.65;;;2.58;;
20832;SDS011;56075;51.264;7.150;2023-07-13T09:25:30;10.75;;;2.45;;
20832;SDS011;56075;51.264;7.150;2023-07-13T09:28:23;7.28;;;2.60;;
20832;SDS011;56075;51.264;7.150;2023-07-13T09:31:04;8.15;;;2.67;;
20832;SDS011;56075;51.264;7.150;2023-07-13T09:33:43;10.68;;;2.47;;
20832;SDS011;56075;51.264;7.150;2023-07-13T09:36:18;10.07;;;2.58;;
20832;SDS011;56075;51.264;7.150;2023-07-13T09:38:57;8.27;;;2.75;;
20832;SDS011;56075;51.264;7.150;2023-07-13T09:41:46;12.18;;;2.63;;
20832;SDS011;56075;51.264;7.150;2023-07-13T09:44:30;6.50;;;2.30;;
20832;SDS011;56075;51.264;7.150;2023-07-13T09:47:14;7.10;;;1.98;;
20832;SDS011;56075;51.264;7.150;2023-07-13T09:50:02;10.85;;;2.45;;
20832;SDS011;56075;51.264;7.150;2023-07-13T09:52:45;6.97;;;2.08;;
20832;SDS011;56075;51.264;7.150;2023-07-13T09:55:23;8.07;;;2.33;;
20832;SDS011;56075;51.264;7.150;2023-07-13T09:57:56;5.18;;;2.00;;
20832;SDS011;56075;51.264;7.150;2023-07-13T10:00:28;9.80;;;2.13;;
20832;SDS011;56075;51.264;7.150;2023-07-13T10:03:04;8.38;;;2.13;;
20832;SDS011;56075;51.264;7.150;2023-07-13T10:06:00;7.03;;;2.30;;
20832;SDS011;56075;51.264;7.150;2023-07-13T10:08:41;10.25;;;1.90;;
20832;SDS011;56075;51.264;7.150;2023-07-13T10:11:19;9.32;;;1.88;;
20832;SDS011;56075;51.264;7.150;2023-07-13T10:14:02;6.78;;;2.45;;
20832;SDS011;56075;51.264;7.150;2023-07-13T10:16:42;5.38;;;1.98;;
20832;SDS011;56075;51.264;7.150;2023-07-13T10:19:18;12.75;;;2.20;;
20832;SDS011;56075;51.264;7.150;2023-07-13T10:22:09;8.27;;;2.17;;
20832;SDS011;56075;51.264;7.150;2023-07-13T10:24:51;7.03;;;2.10;;
20832;SDS011;56075;51.264;7.150;2023-07-13T10:27:29;9.18;;;1.90;;
20832;SDS011;56075;51.264;7.150;2023-07-13T10:30:09;6.03;;;2.30;;
20832;SDS011;56075;51.264;7.150;2023-07-13T10:33:01;9.10;;;2.05;;
20832;SDS011;56075;51.264;7.150;2023-07-13T10:35:33;7.43;;;2.00;;
20832;SDS011;56075;51.264;7.150;2023-07-13T10:38:06;7.05;;;1.90;;
20832;SDS011;56075;51.264;7.150;2023-07-13T10:40:45;8.45;;;1.83;;
20832;SDS011;56075;51.264;7.150;2023-07-13T10:45:57;10.25;;;2.00;;
20832;SDS011;56075;51.264;7.150;2023-07-13T10:48:31;8.88;;;2.25;;
20832;SDS011;56075;51.264;7.150;2023-07-13T10:51:05;7.97;;;1.90;;
20832;SDS011;56075;51.264;7.150;2023-07-13T10:53:38;10.82;;;2.17;;
20832;SDS011;56075;51.264;7.150;2023-07-13T10:56:22;7.70;;;2.08;;
20832;SDS011;56075;51.264;7.150;2023-07-13T10:59:06;12.00;;;2.03;;
20832;SDS011;56075;51.264;7.150;2023-07-13T11:01:50;8.77;;;2.28;;
20832;SDS011;56075;51.264;7.150;2023-07-13T11:04:25;7.57;;;1.88;;
20832;SDS011;56075;51.264;7.150;2023-07-13T11:06:59;7.88;;;2.08;;
20832;SDS011;56075;51.264;7.150;2023-07-13T11:09:52;6.55;;;1.75;;
20832;SDS011;56075;51.264;7.150;2023-07-13T11:12:48;5.32;;;1.40;;
20832;SDS011;56075;51.264;7.150;2023-07-13T11:15:28;7.10;;;1.70;;
20832;SDS011;56075;51.264;7.150;2023-07-13T11:18:04;4.45;;;1.58;;
20832;SDS011;56075;51.264;7.150;2023-07-13T11:20:43;6.95;;;1.75;;
20832;SDS011;56075;51.264;7.150;2023-07-13T11:25:48;8.88;;;1.70;;
20832;SDS011;56075;51.264;7.150;2023-07-13T11:28:23;5.45;;;1.80;;
20832;SDS011;56075;51.264;7.150;2023-07-13T11:36:13;6.78;;;1.77;;
20832;SDS011;56075;51.264;7.150;2023-07-13T11:39:53;9.55;;;1.77;;
20832;SDS011;56075;51.264;7.150;2023-07-13T11:42:11;3.80;;;1.70;;
20832;SDS011;56075;51.264;7.150;2023-07-13T11:44:47;8.38;;;1.60;;
20832;SDS011;56075;51.264;7.150;2023-07-13T11:47:21;8.35;;;1.60;;
20832;SDS011;56075;51.264;7.150;2023-07-13T11:49:54;4.32;;;1.60;;
20832;SDS011;56075;51.264;7.150;2023-07-13T11:52:32;7.20;;;1.75;;
20832;SDS011;56075;51.264;7.150;2023-07-13T11:55:13;6.65;;;1.58;;
20832;SDS011;56075;51.264;7.150;2023-07-13T11:58:00;9.65;;;1.70;;
20832;SDS011;56075;51.264;7.150;2023-07-13T12:00:32;9.43;;;1.63;;
20832;SDS011;56075;51.264;7.150;2023-07-13T12:03:04;10.68;;;1.80;;
20832;SDS011;56075;51.264;7.150;2023-07-13T12:05:36;7.22;;;1.85;;
20832;SDS011;56075;51.264;7.150;2023-07-13T12:08:10;5.13;;;1.42;;
20832;SDS011;56075;51.264;7.150;2023-07-13T12:10:42;7.32;;;1.60;;
20832;SDS011;56075;51.264;7.150;2023-07-13T12:13:13;9.32;;;1.65;;
20832;SDS011;56075;51.264;7.150;2023-07-13T12:15:45;5.45;;;1.70;;
20832;SDS011;56075;51.264;7.150;2023-07-13T12:18:20;4.97;;;1.70;;
20832;SDS011;56075;51.264;7.150;2023-07-13T12:21:00;3.70;;;1.35;;
20832;SDS011;56075;51.264;7.150;2023-07-13T12:23:34;5.40;;;1.60;;
20832;SDS011;56075;51.264;7.150;2023-07-13T12:26:06;9.27;;;1.77;;
20832;SDS011;56075;51.264;7.150;2023-07-13T12:28:47;5.40;;;1.40;;
20832;SDS011;56075;51.264;7.150;2023-07-13T12:34:08;5.25;;;1.65;;
20832;SDS011;56075;51.264;7.150;2023-07-13T12:39:43;7.22;;;1.40;;
20832;SDS011;56075;51.264;7.150;2023-07-13T12:42:24;5.57;;;1.70;;
20832;SDS011;56075;51.264;7.150;2023-07-13T12:45:02;10.15;;;1.90;;
20832;SDS011;56075;51.264;7.150;2023-07-13T12:47:48;10.25;;;1.63;;
20832;SDS011;56075;51.264;7.150;2023-07-13T12:50:27;10.38;;;1.58;;
20832;SDS011;56075;51.264;7.150;2023-07-13T12:53:13;5.95;;;1.60;;
20832;SDS011;56075;51.264;7.150;2023-07-13T12:55:47;5.80;;;1.42;;
20832;SDS011;56075;51.264;7.150;2023-07-13T12:58:24;7.40;;;1.55;;
20832;SDS011;56075;51.264;7.150;2023-07-13T13:01:01;5.97;;;1.77;;
20832;SDS011;56075;51.264;7.150;2023-07-13T13:03:40;8.13;;;1.50;;
20832;SDS011;56075;51.264;7.150;2023-07-13T13:08:50;7.93;;;1.30;;
20832;SDS011;56075;51.264;7.150;2023-07-13T13:11:29;5.30;;;1.45;;
20832;SDS011;56075;51.264;7.150;2023-07-13T13:14:01;5.82;;;1.85;;
20832;SDS011;56075;51.264;7.150;2023-07-13T13:16:33;7.50;;;1.48;;
20832;SDS011;56075;51.264;7.150;2023-07-13T13:19:14;6.68;;;1.63;;
20832;SDS011;56075;51.264;7.150;2023-07-13T13:21:46;6.63;;;1.27;;
20832;SDS011;56075;51.264;7.150;2023-07-13T13:24:19;8.38;;;1.33;;
20832;SDS011;56075;51.264;7.150;2023-07-13T13:26:53;3.63;;;1.27;;
20832;SDS011;56075;51.264;7.150;2023-07-13T13:29:27;6.18;;;1.38;;
20832;SDS011;56075;51.264;7.150;2023-07-13T13:31:58;2.10;;;1.08;;
20832;SDS011;56075;51.264;7.150;2023-07-13T13:34:29;3.95;;;1.20;;
20832;SDS011;56075;51.264;7.150;2023-07-13T13:37:01;7.80;;;1.50;;
20832;SDS011;56075;51.264;7.150;2023-07-13T13:39:35;3.35;;;1.15;;
20832;SDS011;56075;51.264;7.150;2023-07-13T13:42:08;2.97;;;1.17;;
20832;SDS011;56075;51.264;7.150;2023-07-13T13:44:40;5.47;;;1.45;;
20832;SDS011;56075;51.264;7.150;2023-07-13T13:47:32;6.50;;;1.48;;
20832;SDS011;56075;51.264;7.150;2023-07-13T13:50:11;6.00;;;1.17;;
20832;SDS011;56075;51.264;7.150;2023-07-13T13:52:47;5.38;;;1.33;;
20832;SDS011;56075;51.264;7.150;2023-07-13T13:55:19;9.07;;;1.35;;
20832;SDS011;56075;51.264;7.150;2023-07-13T13:57:51;7.95;;;1.30;;
20832;SDS011;56075;51.264;7.150;2023-07-13T14:00:22;7.03;;;1.27;;
20832;SDS011;56075;51.264;7.150;2023-07-13T14:02:55;3.92;;;1.30;;
20832;SDS011;56075;51.264;7.150;2023-07-13T14:05:27;8.25;;;1.30;;
20832;SDS011;56075;51.264;7.150;2023-07-13T14:08:00;8.43;;;1.65;;
20832;SDS011;56075;51.264;7.150;2023-07-13T14:10:31;4.32;;;1.38;;
20832;SDS011;56075;51.264;7.150;2023-07-13T14:13:03;10.45;;;1.60;;
20832;SDS011;56075;51.264;7.150;2023-07-13T14:15:36;5.22;;;1.30;;
20832;SDS011;56075;51.264;7.150;2023-07-13T14:18:08;3.70;;;1.30;;
20832;SDS011;56075;51.264;7.150;2023-07-13T14:20:39;6.38;;;1.23;;
20832;SDS011;56075;51.264;7.150;2023-07-13T14:23:12;3.63;;;1.10;;
20832;SDS011;56075;51.264;7.150;2023-07-13T14:25:45;6.30;;;1.52;;
20832;SDS011;56075;51.264;7.150;2023-07-13T14:28:24;5.47;;;1.40;;
20832;SDS011;56075;51.264;7.150;2023-07-13T14:30:56;5.38;;;1.48;;
20832;SDS011;56075;51.264;7.150;2023-07-13T14:33:28;3.60;;;2.03;;
20832;SDS011;56075;51.264;7.150;2023-07-13T14:35:59;8.40;;;1.60;;
20832;SDS011;56075;51.264;7.150;2023-07-13T14:38:30;5.68;;;1.60;;
20832;SDS011;56075;51.264;7.150;2023-07-13T14:41:01;4.03;;;1.38;;
20832;SDS011;56075;51.264;7.150;2023-07-13T14:43:32;2.58;;;1.15;;
20832;SDS011;56075;51.264;7.150;2023-07-13T14:46:03;4.45;;;1.40;;
20832;SDS011;56075;51.264;7.150;2023-07-13T14:48:34;5.22;;;1.40;;
20832;SDS011;56075;51.264;7.150;2023-07-13T14:51:07;5.30;;;1.45;;
20832;SDS011;56075;51.264;7.150;2023-07-13T14:53:40;7.03;;;1.30;;
20832;SDS011;56075;51.264;7.150;2023-07-13T14:56:11;3.60;;;1.20;;
20832;SDS011;56075;51.264;7.150;2023-07-13T14:58:43;4.75;;;1.58;;
20832;SDS011;56075;51.264;7.150;2023-07-13T15:01:14;5.95;;;1.40;;
20832;SDS011;56075;51.264;7.150;2023-07-13T15:03:47;7.35;;;1.33;;
20832;SDS011;56075;51.264;7.150;2023-07-13T15:06:20;4.13;;;1.20;;
20832;SDS011;56075;51.264;7.150;2023-07-13T15:08:51;5.32;;;1.27;;
20832;SDS011;56075;51.264;7.150;2023-07-13T15:11:22;2.92;;;1.13;;
20832;SDS011;56075;51.264;7.150;2023-07-13T15:13:53;5.25;;;1.30;;
20832;SDS011;56075;51.264;7.150;2023-07-13T15:16:25;3.83;;;1.38;;
20832;SDS011;56075;51.264;7.150;2023-07-13T15:18:57;3.08;;;1.30;;
20832;SDS011;56075;51.264;7.150;2023-07-13T15:21:29;2.88;;;1.15;;
20832;SDS011;56075;51.264;7.150;2023-07-13T15:24:05;4.70;;;1.40;;
20832;SDS011;56075;51.264;7.150;2023-07-13T15:26:39;6.05;;;1.58;;
20832;SDS011;56075;51.264;7.150;2023-07-13T15:29:11;4.05;;;1.40;;
20832;SDS011;56075;51.264;7.150;2023-07-13T15:31:42;3.97;;;1.45;;
20832;SDS011;56075;51.264;7.150;2023-07-13T15:34:15;5.22;;;1.50;;
20832;SDS011;56075;51.264;7.150;2023-07-13T15:36:49;6.28;;;1.58;;
20832;SDS011;56075;51.264;7.150;2023-07-13T15:39:20;3.20;;;1.60;;
20832;SDS011;56075;51.264;7.150;2023-07-13T15:41:51;5.70;;;1.80;;
20832;SDS011;56075;51.264;7.150;2023-07-13T15:44:28;6.78;;;1.90;;
20832;SDS011;56075;51.264;7.150;2023-07-13T15:47:01;7.55;;;2.40;;
20832;SDS011;56075;51.264;7.150;2023-07-13T15:49:33;5.88;;;2.22;;
20832;SDS011;56075;51.264;7.150;2023-07-13T15:52:05;5.72;;;2.08;;